createdAt,value
2022-11-15T00:01:42.404Z,51.53
2022-11-15T00:04:23.864Z,50.08
2022-11-15T00:07:05.460Z,41.70
2022-11-15T00:09:49.353Z,52.58
2022-11-15T00:12:30.330Z,48.20
2022-11-15T00:15:11.379Z,47.92
2022-11-15T00:17:52.618Z,46.72
2022-11-15T00:20:36.229Z,54.17
2022-11-15T00:23:17.587Z,52.90
2022-11-15T00:25:59.425Z,53.70
2022-11-15T00:28:41.451Z,51.08
2022-11-15T00:31:22.376Z,51.70
2022-11-15T00:34:03.257Z,48.80
2022-11-15T00:36:44.199Z,48.15
2022-11-15T00:39:25.271Z,48.73
2022-11-15T00:42:06.239Z,49.00
2022-11-15T00:44:47.259Z,44.40
2022-11-15T00:47:28.531Z,43.60
2022-11-15T00:50:14.840Z,46.75
2022-11-15T00:52:56.761Z,48.83
2022-11-15T00:55:38.119Z,45.40
2022-11-15T00:58:19.133Z,47.85
2022-11-15T01:01:08.379Z,45.70
2022-11-15T01:03:49.609Z,48.60
2022-11-15T01:06:31.099Z,52.50
2022-11-15T01:09:12.452Z,49.85
2022-11-15T01:11:53.568Z,48.42
2022-11-15T01:14:34.598Z,51.58
2022-11-15T01:17:15.419Z,49.08
2022-11-15T01:19:58.722Z,49.73
2022-11-15T01:22:39.653Z,48.70
2022-11-15T01:25:20.566Z,49.38
2022-11-15T01:28:01.852Z,46.58
2022-11-15T01:30:43.254Z,47.13
2022-11-15T01:33:24.695Z,47.60
2022-11-15T01:36:12.693Z,45.72
2022-11-15T01:38:56.274Z,48.25
2022-11-15T01:41:37.179Z,46.35
2022-11-15T01:44:44.273Z,45.97
2022-11-15T01:47:53.588Z,49.37
2022-11-15T01:50:34.762Z,49.60
2022-11-15T01:53:16.372Z,55.67
2022-11-15T01:55:57.834Z,51.45
2022-11-15T01:58:40.779Z,48.30
2022-11-15T02:01:22.939Z,52.70
2022-11-15T02:04:10.140Z,60.67
2022-11-15T02:06:51.451Z,53.67
2022-11-15T02:09:37.607Z,61.40
2022-11-15T02:12:22.281Z,58.50
2022-11-15T02:15:05.072Z,58.63
2022-11-15T02:17:51.525Z,55.33
2022-11-15T02:20:38.337Z,57.42
2022-11-15T02:23:57.063Z,56.53
2022-11-15T02:26:56.018Z,57.17
2022-11-15T02:30:05.037Z,61.97
2022-11-15T02:33:01.921Z,60.30
2022-11-15T02:36:02.650Z,64.80
2022-11-15T02:38:59.579Z,61.45
2022-11-15T02:42:00.243Z,62.13
2022-11-15T02:44:46.159Z,61.53
2022-11-15T02:47:31.208Z,57.22
2022-11-15T02:50:17.062Z,58.80
2022-11-15T02:52:58.874Z,56.08
2022-11-15T02:55:45.959Z,56.03
2022-11-15T02:58:35.907Z,54.70
2022-11-15T03:01:31.485Z,53.50
2022-11-15T03:04:30.957Z,55.00
2022-11-15T03:07:17.109Z,56.55
2022-11-15T03:10:21.201Z,52.30
2022-11-15T03:13:26.725Z,49.63
2022-11-15T03:16:12.055Z,53.40
2022-11-15T03:18:58.649Z,54.78
2022-11-15T03:21:41.688Z,50.20
2022-11-15T03:24:26.389Z,51.60
2022-11-15T03:27:10.751Z,50.50
2022-11-15T03:30:12.259Z,47.15
2022-11-15T03:32:57.550Z,51.65
2022-11-15T03:35:41.961Z,51.05
2022-11-15T03:38:26.396Z,43.17
2022-11-15T03:41:16.874Z,44.33
2022-11-15T03:44:26.994Z,40.30
2022-11-15T03:47:13.515Z,40.95
2022-11-15T03:50:02.212Z,43.70
2022-11-15T03:52:46.389Z,42.33
2022-11-15T03:55:27.874Z,39.77
2022-11-15T03:58:09.210Z,39.92
2022-11-15T04:00:50.683Z,42.75
2022-11-15T04:03:32.301Z,42.47
2022-11-15T04:06:13.685Z,40.92
2022-11-15T04:08:54.753Z,37.40
2022-11-15T04:11:35.872Z,36.40
2022-11-15T04:14:16.994Z,40.25
2022-11-15T04:16:58.445Z,38.97
2022-11-15T04:19:57.909Z,39.13
2022-11-15T04:22:58.045Z,38.13
2022-11-15T04:25:39.739Z,38.20
2022-11-15T04:28:20.975Z,42.17
2022-11-15T04:31:01.884Z,42.17
2022-11-15T04:33:42.696Z,41.05
2022-11-15T04:36:42.564Z,38.20
2022-11-15T04:39:23.726Z,36.70
2022-11-15T04:42:04.741Z,34.78
2022-11-15T04:44:46.259Z,38.60
2022-11-15T04:47:28.782Z,36.25
2022-11-15T04:50:15.392Z,34.13
2022-11-15T04:52:56.118Z,37.03
2022-11-15T04:55:37.280Z,35.72
2022-11-15T04:58:18.417Z,38.17
2022-11-15T05:01:07.113Z,34.60
2022-11-15T05:04:21.439Z,36.67
2022-11-15T05:07:05.173Z,36.80
2022-11-15T05:09:46.514Z,37.15
2022-11-15T05:12:27.494Z,36.65
2022-11-15T05:15:10.119Z,40.42
2022-11-15T05:17:51.436Z,39.67
2022-11-15T05:20:33.280Z,38.63
2022-11-15T05:23:14.498Z,38.05
2022-11-15T05:26:02.903Z,38.17
2022-11-15T05:28:48.002Z,34.17
2022-11-15T05:31:29.465Z,39.37
2022-11-15T05:34:11.427Z,36.75
2022-11-15T05:36:52.778Z,38.42
2022-11-15T05:39:34.205Z,35.47
2022-11-15T05:42:16.933Z,36.75
2022-11-15T05:44:59.670Z,35.90
2022-11-15T05:47:41.942Z,34.97
2022-11-15T05:50:24.063Z,36.60
2022-11-15T05:53:07.152Z,37.00
2022-11-15T05:55:48.879Z,34.10
2022-11-15T05:58:32.805Z,37.10
2022-11-15T06:01:14.161Z,36.45
2022-11-15T06:03:55.475Z,36.85
2022-11-15T06:06:36.647Z,36.80
2022-11-15T06:09:17.718Z,36.67
2022-11-15T06:11:59.251Z,35.40
2022-11-15T06:14:40.696Z,39.42
2022-11-15T06:17:22.861Z,41.13
2022-11-15T06:20:04.660Z,39.20
2022-11-15T06:22:45.884Z,38.88
2022-11-15T06:25:31.142Z,42.20
2022-11-15T06:28:12.274Z,37.70
2022-11-15T06:30:53.625Z,40.08
2022-11-15T06:33:35.417Z,38.67
2022-11-15T06:36:18.236Z,36.67
2022-11-15T06:38:59.472Z,41.73
2022-11-15T06:41:41.413Z,46.47
2022-11-15T06:44:22.812Z,40.28
2022-11-15T06:47:03.736Z,43.08
2022-11-15T06:49:45.017Z,41.22
2022-11-15T06:52:26.422Z,42.87
2022-11-15T06:55:09.269Z,40.45
2022-11-15T06:57:52.821Z,39.40
2022-11-15T07:00:34.802Z,42.65
2022-11-15T07:03:16.511Z,43.42
2022-11-15T07:06:04.242Z,43.40
2022-11-15T07:08:48.088Z,42.22
2022-11-15T07:11:29.113Z,45.45
2022-11-15T07:14:10.075Z,41.63
2022-11-15T07:16:50.919Z,43.28
2022-11-15T07:19:36.354Z,44.40
2022-11-15T07:22:17.269Z,44.25
2022-11-15T07:24:58.433Z,43.83
2022-11-15T07:27:39.894Z,39.63
2022-11-15T07:30:22.116Z,41.20
2022-11-15T07:33:03.612Z,42.27
2022-11-15T07:35:47.417Z,46.47
2022-11-15T07:38:30.020Z,45.65
2022-11-15T07:41:11.216Z,45.63
2022-11-15T07:43:53.906Z,44.67
2022-11-15T07:46:35.457Z,45.23
2022-11-15T07:49:16.954Z,45.22
2022-11-15T07:51:58.808Z,43.58
2022-11-15T07:54:40.641Z,44.85
2022-11-15T07:57:21.790Z,46.08
2022-11-15T08:00:07.730Z,43.90
2022-11-15T08:02:49.159Z,45.58
2022-11-15T08:05:30.744Z,48.08
2022-11-15T08:08:12.491Z,48.95
2022-11-15T08:10:54.134Z,44.30
2022-11-15T08:13:35.476Z,51.60
2022-11-15T08:16:16.576Z,46.97
2022-11-15T08:18:58.108Z,47.60
2022-11-15T08:21:39.742Z,48.53
2022-11-15T08:24:21.819Z,50.10
2022-11-15T08:27:02.850Z,48.53
2022-11-15T08:29:51.212Z,48.13
2022-11-15T08:32:33.599Z,47.28
2022-11-15T08:35:15.044Z,46.13
2022-11-15T08:37:56.455Z,49.88
2022-11-15T08:40:39.681Z,49.13
2022-11-15T08:43:21.251Z,49.55
2022-11-15T08:46:02.868Z,52.33
2022-11-15T08:48:44.503Z,46.47
2022-11-15T08:51:25.816Z,44.53
2022-11-15T08:54:07.914Z,49.70
2022-11-15T08:56:49.659Z,48.47
2022-11-15T08:59:31.722Z,48.05
2022-11-15T09:02:15.855Z,46.00
2022-11-15T09:04:58.093Z,48.95
2022-11-15T09:07:39.254Z,44.53
2022-11-15T09:10:21.860Z,44.67
2022-11-15T09:13:03.166Z,44.90
2022-11-15T09:15:44.639Z,43.35
2022-11-15T09:18:26.391Z,46.35
2022-11-15T09:21:08.208Z,45.70
2022-11-15T09:23:53.343Z,42.83
2022-11-15T09:26:34.721Z,43.70
2022-11-15T09:29:16.192Z,41.75
2022-11-15T09:31:57.603Z,43.90
2022-11-15T09:34:39.131Z,44.77
2022-11-15T09:37:20.494Z,46.70
2022-11-15T09:40:04.338Z,45.00
2022-11-15T09:43:04.385Z,45.83
2022-11-15T09:45:54.486Z,42.55
2022-11-15T09:48:50.513Z,46.20
2022-11-15T09:51:35.278Z,48.28
2022-11-15T09:56:49.005Z,47.63
2022-11-15T09:59:17.278Z,50.90
2022-11-15T10:01:58.172Z,44.85
2022-11-15T10:04:22.008Z,46.00
2022-11-15T10:06:55.119Z,46.65
2022-11-15T10:09:24.527Z,44.85
2022-11-15T10:11:47.041Z,47.47
2022-11-15T10:14:15.270Z,49.13
2022-11-15T10:17:15.711Z,47.67
2022-11-15T10:20:06.253Z,44.78
2022-11-15T10:22:35.903Z,43.75
2022-11-15T10:25:18.347Z,42.40
2022-11-15T10:27:43.261Z,47.88
2022-11-15T10:30:12.950Z,44.67
2022-11-15T10:32:37.356Z,47.30
2022-11-15T10:35:00.021Z,42.85
2022-11-15T10:37:31.609Z,47.00
2022-11-15T10:40:19.674Z,47.70
2022-11-15T10:42:42.477Z,46.65
2022-11-15T10:45:24.713Z,46.42
2022-11-15T10:47:47.479Z,47.08
2022-11-15T10:50:33.344Z,45.38
2022-11-15T10:52:56.255Z,47.13
2022-11-15T10:55:19.485Z,47.17
2022-11-15T10:57:51.580Z,46.58
2022-11-15T11:00:21.558Z,48.97
2022-11-15T11:02:57.470Z,49.05
2022-11-15T11:05:28.191Z,47.97
2022-11-15T11:08:02.348Z,45.65
2022-11-15T11:13:38.680Z,51.55
2022-11-15T11:16:21.545Z,51.58
2022-11-15T11:19:10.578Z,52.93
2022-11-15T11:22:10.393Z,50.67
2022-11-15T11:24:57.947Z,55.17
2022-11-15T11:27:29.551Z,49.08
2022-11-15T11:30:11.276Z,44.33
2022-11-15T11:32:59.530Z,49.40
2022-11-15T11:35:33.485Z,51.70
2022-11-15T11:38:03.470Z,51.58
2022-11-15T11:40:26.246Z,48.83
2022-11-15T11:42:59.146Z,49.75
2022-11-15T11:45:41.274Z,50.10
2022-11-15T11:48:16.037Z,53.25
2022-11-15T11:50:40.125Z,51.47
2022-11-15T11:53:13.747Z,52.97
2022-11-15T11:55:42.313Z,48.13
2022-11-15T11:58:27.208Z,48.13
2022-11-15T12:00:59.448Z,44.90
2022-11-15T12:03:43.874Z,45.70
2022-11-15T12:06:30.758Z,48.10
2022-11-15T12:09:03.058Z,46.83
2022-11-15T12:11:59.387Z,50.70
2022-11-15T12:15:00.994Z,51.10
2022-11-15T12:17:33.022Z,53.42
2022-11-15T12:20:02.874Z,52.60
2022-11-15T12:22:46.390Z,51.00
2022-11-15T12:25:17.711Z,51.37
2022-11-15T12:27:47.024Z,48.60
2022-11-15T12:30:16.677Z,49.75
2022-11-15T12:32:42.167Z,51.92
2022-11-15T12:35:07.221Z,52.35
2022-11-15T12:37:38.894Z,49.03
2022-11-15T12:40:27.281Z,48.72
2022-11-15T12:43:08.089Z,50.90
2022-11-15T12:45:34.008Z,48.38
2022-11-15T12:48:19.324Z,50.42
2022-11-15T12:50:56.967Z,53.90
2022-11-15T12:53:25.550Z,54.78
2022-11-15T12:56:14.053Z,51.30
2022-11-15T12:59:00.171Z,46.47
2022-11-15T13:01:31.921Z,47.75
2022-11-15T13:04:31.277Z,47.27
2022-11-15T13:07:07.740Z,51.00
2022-11-15T13:09:33.369Z,46.70
2022-11-15T13:11:58.350Z,49.65
2022-11-15T13:14:44.819Z,50.65
2022-11-15T13:17:21.186Z,55.23
2022-11-15T13:19:46.426Z,58.33
2022-11-15T13:22:31.141Z,57.67
2022-11-15T13:24:55.663Z,58.03
2022-11-15T13:27:20.545Z,59.40
2022-11-15T13:29:44.895Z,60.97
2022-11-15T13:32:14.450Z,61.80
2022-11-15T13:34:54.064Z,58.30
2022-11-15T13:37:37.289Z,54.90
2022-11-15T13:40:18.752Z,62.80
2022-11-15T13:42:45.641Z,61.73
2022-11-15T13:45:15.671Z,60.17
2022-11-15T13:47:38.525Z,58.30
2022-11-15T13:50:09.651Z,67.55
2022-11-15T13:52:37.832Z,57.63
2022-11-15T13:55:11.312Z,59.20
2022-11-15T13:57:49.493Z,59.00
2022-11-15T14:00:36.581Z,55.28
2022-11-15T14:03:16.723Z,55.72
2022-11-15T14:05:39.447Z,55.05
2022-11-15T14:08:13.644Z,52.93
2022-11-15T14:10:38.457Z,60.42
2022-11-15T14:13:02.122Z,55.05
2022-11-15T14:15:39.029Z,57.10
2022-11-15T14:18:02.698Z,56.83
2022-11-15T14:20:26.002Z,57.33
2022-11-15T14:23:00.642Z,61.55
2022-11-15T14:25:35.171Z,59.78
2022-11-15T14:28:09.909Z,63.33
2022-11-15T14:30:33.019Z,69.35
2022-11-15T14:32:55.598Z,66.60
2022-11-15T14:35:21.138Z,69.72
2022-11-15T14:37:44.675Z,67.95
2022-11-15T14:40:10.670Z,66.63
2022-11-15T14:42:33.467Z,66.40
2022-11-15T14:44:56.365Z,68.30
2022-11-15T14:47:19.844Z,74.30
2022-11-15T14:49:43.063Z,76.45
2022-11-15T14:52:33.032Z,75.70
2022-11-15T14:54:57.122Z,79.18
2022-11-15T14:57:19.750Z,74.67
2022-11-15T14:59:42.653Z,77.65
2022-11-15T15:02:17.002Z,80.25
2022-11-15T15:04:39.685Z,81.05
2022-11-15T15:07:02.306Z,80.97
2022-11-15T15:09:25.145Z,74.40
2022-11-15T15:11:47.827Z,79.85
2022-11-15T15:14:10.457Z,76.57
2022-11-15T15:16:33.112Z,76.38
2022-11-15T15:18:55.749Z,73.07
2022-11-15T15:21:22.893Z,73.03
2022-11-15T15:23:45.679Z,77.10
2022-11-15T15:26:08.543Z,75.57
2022-11-15T15:28:34.472Z,77.63
2022-11-15T15:30:57.653Z,70.10
2022-11-15T15:33:20.188Z,76.57
2022-11-15T15:35:43.109Z,69.78
2022-11-15T15:38:05.708Z,69.57
2022-11-15T15:40:30.809Z,69.70
2022-11-15T15:42:53.497Z,67.45
2022-11-15T15:45:41.141Z,69.45
2022-11-15T15:48:06.251Z,69.55
2022-11-15T15:50:34.673Z,70.18
2022-11-15T15:52:59.495Z,70.53
2022-11-15T15:55:22.503Z,66.47
2022-11-15T15:57:45.186Z,60.33
2022-11-15T16:00:10.425Z,69.05
2022-11-15T16:02:40.274Z,69.70
2022-11-15T16:05:03.422Z,62.53
2022-11-15T16:07:26.179Z,65.20
2022-11-15T16:10:03.061Z,66.67
2022-11-15T16:12:30.455Z,62.90
2022-11-15T16:14:52.918Z,69.88
2022-11-15T16:17:20.822Z,64.45
2022-11-15T16:19:45.244Z,65.70
2022-11-15T16:22:07.836Z,70.72
2022-11-15T16:24:30.767Z,68.13
2022-11-15T16:26:53.552Z,68.50
2022-11-15T16:29:16.247Z,66.88
2022-11-15T16:31:39.584Z,66.30
2022-11-15T16:34:02.124Z,66.00
2022-11-15T16:36:30.457Z,66.18
2022-11-15T16:38:53.708Z,68.90
2022-11-15T16:41:19.156Z,71.10
2022-11-15T16:43:41.604Z,70.45
2022-11-15T16:46:22.058Z,75.00
2022-11-15T16:48:45.085Z,73.13
2022-11-15T16:51:07.813Z,73.90
2022-11-15T16:53:30.399Z,80.40
2022-11-15T16:55:53.345Z,80.97
2022-11-15T16:58:15.970Z,82.95
2022-11-15T17:00:38.696Z,81.07
2022-11-15T17:03:01.923Z,81.18
2022-11-15T17:05:27.644Z,85.00
2022-11-15T17:07:54.428Z,80.70
2022-11-15T17:10:17.704Z,83.00
2022-11-15T17:12:41.186Z,78.13
2022-11-15T17:15:05.926Z,83.20
2022-11-15T17:17:28.595Z,76.75
2022-11-15T17:19:52.323Z,77.10
2022-11-15T17:22:15.331Z,75.23
2022-11-15T17:24:37.840Z,75.25
2022-11-15T17:27:00.592Z,84.93
2022-11-15T17:29:23.536Z,85.65
2022-11-15T17:31:46.817Z,84.63
2022-11-15T17:34:09.634Z,84.03
2022-11-15T17:36:32.773Z,79.43
2022-11-15T17:38:59.279Z,78.93
2022-11-15T17:41:22.746Z,80.88
2022-11-15T17:43:45.510Z,80.25
2022-11-15T17:46:12.434Z,85.65
2022-11-15T17:48:35.375Z,89.32
2022-11-15T17:51:03.112Z,81.43
2022-11-15T17:53:26.947Z,83.10
2022-11-15T17:55:49.849Z,91.85
2022-11-15T17:58:12.395Z,89.47
2022-11-15T18:00:37.815Z,86.63
2022-11-15T18:03:00.415Z,85.72
2022-11-15T18:05:23.045Z,88.63
2022-11-15T18:07:45.870Z,84.30
2022-11-15T18:10:08.996Z,88.82
2022-11-15T18:12:31.875Z,84.80
2022-11-15T18:14:54.410Z,83.05
2022-11-15T18:17:19.022Z,84.57
2022-11-15T18:19:42.278Z,89.30
2022-11-15T18:22:07.253Z,90.20
2022-11-15T18:24:35.145Z,87.85
2022-11-15T18:26:59.487Z,87.88
2022-11-15T18:29:24.492Z,88.55
2022-11-15T18:31:50.105Z,91.07
2022-11-15T18:34:12.795Z,92.53
2022-11-15T18:36:36.329Z,91.70
2022-11-15T18:39:02.329Z,96.55
2022-11-15T18:41:28.492Z,94.85
2022-11-15T18:43:52.560Z,103.72
2022-11-15T18:46:17.051Z,93.63
2022-11-15T18:48:41.683Z,94.25
2022-11-15T18:51:09.385Z,103.00
2022-11-15T18:53:33.160Z,95.82
2022-11-15T18:56:10.607Z,94.10
2022-11-15T18:58:36.294Z,91.67
2022-11-15T19:01:07.592Z,89.82
2022-11-15T19:03:35.427Z,98.05
2022-11-15T19:06:09.634Z,102.13
2022-11-15T19:08:35.604Z,109.70
2022-11-15T19:11:05.518Z,106.13
2022-11-15T19:13:28.099Z,107.40
2022-11-15T19:15:57.639Z,96.80
2022-11-15T19:18:20.590Z,100.60
2022-11-15T19:20:43.640Z,100.80
2022-11-15T19:23:06.498Z,97.33
2022-11-15T19:25:32.725Z,93.88
2022-11-15T19:27:56.633Z,99.65
2022-11-15T19:30:19.624Z,105.03
2022-11-15T19:32:42.471Z,100.38
2022-11-15T19:35:05.708Z,105.47
2022-11-15T19:37:29.580Z,105.28
2022-11-15T19:39:56.038Z,96.97
2022-11-15T19:42:18.605Z,95.88
2022-11-15T19:44:41.387Z,100.55
2022-11-15T19:47:04.399Z,99.60
2022-11-15T19:49:27.566Z,119.40
2022-11-15T19:51:50.742Z,113.68
2022-11-15T19:54:16.937Z,106.63
2022-11-15T19:56:40.157Z,104.93
2022-11-15T19:59:04.679Z,95.97
2022-11-15T20:01:33.404Z,102.10
2022-11-15T20:03:59.545Z,97.47
2022-11-15T20:06:28.391Z,108.88
2022-11-15T20:08:51.260Z,104.97
2022-11-15T20:11:15.821Z,108.27
2022-11-15T20:13:38.929Z,99.55
2022-11-15T20:16:01.878Z,108.97
2022-11-15T20:18:26.464Z,110.95
2022-11-15T20:20:49.942Z,109.20
2022-11-15T20:23:13.663Z,120.80
2022-11-15T20:25:39.759Z,125.15
2022-11-15T20:28:02.278Z,110.28
2022-11-15T20:30:25.800Z,109.45
2022-11-15T20:32:48.778Z,108.78
2022-11-15T20:35:11.503Z,101.63
2022-11-15T20:37:35.152Z,102.72
2022-11-15T20:39:59.738Z,110.50
2022-11-15T20:42:22.364Z,98.47
2022-11-15T20:44:44.969Z,98.57
2022-11-15T20:47:08.998Z,99.00
2022-11-15T20:49:31.808Z,118.95
2022-11-15T20:51:54.756Z,103.63
2022-11-15T20:54:17.541Z,104.15
2022-11-15T20:56:40.067Z,115.85
2022-11-15T20:59:02.939Z,121.90
2022-11-15T21:01:26.042Z,108.88
2022-11-15T21:03:49.440Z,113.90
2022-11-15T21:06:12.192Z,109.20
2022-11-15T21:08:53.558Z,140.90
2022-11-15T21:11:35.149Z,112.27
2022-11-15T21:13:57.983Z,116.45
2022-11-15T21:16:20.562Z,139.73
2022-11-15T21:18:43.279Z,126.38
2022-11-15T21:21:06.200Z,112.18
2022-11-15T21:23:28.847Z,95.28
2022-11-15T21:25:52.313Z,106.97
2022-11-15T21:28:14.934Z,105.43
2022-11-15T21:30:37.720Z,125.32
2022-11-15T21:33:01.455Z,132.65
2022-11-15T21:35:24.066Z,128.25
2022-11-15T21:37:48.586Z,94.00
2022-11-15T21:40:15.613Z,138.35
2022-11-15T21:42:38.174Z,98.43
2022-11-15T21:45:00.669Z,121.72
2022-11-15T21:47:23.285Z,154.77
2022-11-15T21:49:46.694Z,113.85
2022-11-15T21:52:09.490Z,116.72
2022-11-15T21:54:32.173Z,162.93
2022-11-15T21:57:00.312Z,118.20
2022-11-15T21:59:22.870Z,158.67
2022-11-15T22:02:03.846Z,120.25
2022-11-15T22:04:26.433Z,200.80
2022-11-15T22:06:49.046Z,132.40
2022-11-15T22:09:11.695Z,143.93
2022-11-15T22:11:34.739Z,182.73
2022-11-15T22:13:57.468Z,140.13
2022-11-15T22:16:22.008Z,119.65
2022-11-15T22:18:47.449Z,154.20
2022-11-15T22:21:13.902Z,160.82
2022-11-15T22:23:37.354Z,129.60
2022-11-15T22:26:00.280Z,202.93
2022-11-15T22:28:23.818Z,157.00
2022-11-15T22:30:48.137Z,132.63
2022-11-15T22:33:11.222Z,182.80
2022-11-15T22:35:36.884Z,135.57
2022-11-15T22:37:59.410Z,127.28
2022-11-15T22:40:22.949Z,140.77
2022-11-15T22:42:45.476Z,163.73
2022-11-15T22:45:08.273Z,218.40
2022-11-15T22:47:30.848Z,163.73
2022-11-15T22:49:55.176Z,166.65
2022-11-15T22:52:18.524Z,166.70
2022-11-15T22:54:41.171Z,164.68
2022-11-15T22:57:04.225Z,212.20
2022-11-15T22:59:27.081Z,157.87
2022-11-15T23:01:50.990Z,174.20
2022-11-15T23:04:13.798Z,155.63
2022-11-15T23:06:36.448Z,150.52
2022-11-15T23:08:59.093Z,148.45
2022-11-15T23:11:40.448Z,168.47
2022-11-15T23:14:23.062Z,192.35
2022-11-15T23:17:05.681Z,184.55
2022-11-15T23:19:48.121Z,162.45
2022-11-15T23:22:49.008Z,198.40
2022-11-15T23:25:31.414Z,241.87
2022-11-15T23:27:54.067Z,147.60
2022-11-15T23:30:35.318Z,158.35
2022-11-15T23:33:16.312Z,227.02
2022-11-15T23:35:39.208Z,146.88
2022-11-15T23:38:01.907Z,159.00
2022-11-15T23:40:24.627Z,184.75
2022-11-15T23:42:47.127Z,147.80
2022-11-15T23:45:09.912Z,198.52
2022-11-15T23:47:32.509Z,156.85
2022-11-15T23:49:55.251Z,169.32
2022-11-15T23:52:17.838Z,189.57
2022-11-15T23:54:40.488Z,183.63
2022-11-15T23:57:03.255Z,177.15
2022-11-15T23:59:26.216Z,237.88
